Larkspur, CO (80118)

11:14 AM MDT on May 22, 2015 (GMT -0600)
Bernhardt's Barnyard, Spruce Mtn Rd. | | Change Station
CLOSE
Current Station
Personal Weather Station
Location: Larkspur, CO
Elevation: 6776 ft
Nearby Weather Stations

Elev 6776 ft 39.21 °N, 104.88 °W | Updated 4 minutes ago

Overcast
Overcast
51.6 °F
Feels Like 51.6 °F
N
8.3
Wind Variable Wind from North
Gusts 10.7 mph

Today
High -- | Low -- °F
--% Chance of Precip.
Yesterday
High -- | Low -- °F
Precip. -- in
5:40 AM 8:12 PM
Waxing Crescent, 22% visible
Pressure 29.92 in
Visibility 10.0 miles
Clouds Few 1400 ft
Dew Point 46 °F
Humidity 81%
Rainfall 0.24 in
Snow Depth Not available.
UV 10 out of 12
Pollen 4.90 out of 12
Air Quality Not available.
Flu Activity Sporadic
METAR KAFF 221658Z AUTO 12003KT 10SM FEW014 10/06 A3002 RMK AO2 SLP130 T01000061

More Conditions Fewer Conditions

Pressure 29.92 in
Visibility 10.0 miles
Clouds Few 1400 ft
Dew Point 46 °F
Humidity 81%
Rainfall 0.24 in
Snow Depth Not available.
UV 10 out of 12
Pollen 4.90 out of 12
Air Quality Not available.
Flu Activity Sporadic
METAR KAFF 221658Z AUTO 12003KT 10SM FEW014 10/06 A3002 RMK AO2 SLP130 T01000061

More Conditions Fewer Conditions

10-Day Weather Forecast

Almanac

Astronomy

May. 22, 2015 Rise Set
Actual Time
Civil Twilight
Nautical Twilight
Astronomical Twilight
Moon
Length of Visible Light
Length of Day
Tomorrow will be .
, % of the Moon is Illuminated

Today's Extremes

State Highs State Lows

Community

WunderPhotos

Upload Photos

1,823,267 photos uploaded!

WunderBlogs® & News

Nearby

Air Quality

  Air Quality AQ Index Pollutant
Not available.

Snow Depth

Station Depth Elevation

Earthquake Activity

City Distance Mag. Time & Date
Minimum magnitude displayed is 2.5.

Coastal Water Temperatures

Place Temperature

Stations

Nearby Weather Stations

Station Location Temp. Windchill Dew Point Humidity Wind Precip. Elev Updated Type